Orbital elements of COSMOS 2251 DEB
| Launched | 15 June 1993 |
| Flight ended | – |
| Launch site | Plesetsk Missile and Space Complex, Russia |
| Owner | Commonwealth of Independent States (former USSR) |
| NORAD ID | 37530 |
| Date fetched |
Epoch osculation |
Inc. [°] |
Ecc. | RA asc node [hr] |
Arg Peri. [°] |
Mean anom [°] |
Mean motion [rev/day] |
Abs. mag |
| Date fetched |
Epoch osculation |
Inc. [°] |
Ecc. | RA asc node [hr] |
Arg Peri. [°] |
Mean anom [°] |
Mean motion [rev/day] |
Abs. mag |
| 2026 May 06 17:57 | 2026 May 05 02:14:44 | 74.0356 | 0.00257 | 4.7376 | 102.5643 | 273.5593 | 14.34693 | – |
| 2026 May 05 17:57 | 2026 May 05 02:14:44 | 74.0356 | 0.00257 | 4.7376 | 102.5643 | 273.5593 | 14.34693 | – |
| 2026 May 04 17:57 | 2026 Apr 27 15:56:02 | 74.0346 | 0.00257 | 5.6449 | 118.6796 | 273.5593 | 14.34693 | – |
| 2026 May 03 17:57 | 2026 Apr 27 15:56:02 | 74.0346 | 0.00257 | 5.6449 | 118.6796 | 273.5593 | 14.34693 | – |
| 2026 May 02 17:57 | 2026 Apr 27 15:56:02 | 74.0346 | 0.00257 | 5.6449 | 118.6796 | 273.5593 | 14.34693 | – |
| 2026 May 01 17:56 | 2026 Apr 27 15:56:02 | 74.0346 | 0.00257 | 5.6449 | 118.6796 | 273.5593 | 14.34693 | – |
| 2026 Apr 30 17:56 | 2026 Apr 27 15:56:02 | 74.0346 | 0.00257 | 5.6449 | 118.6796 | 273.5593 | 14.34693 | – |
| 2026 Apr 29 17:57 | 2026 Apr 23 16:32:31 | 74.0338 | 0.00258 | 6.1304 | 127.2238 | 273.5593 | 14.34693 | – |
| 2026 Apr 28 17:56 | 2026 Apr 23 16:32:31 | 74.0338 | 0.00258 | 6.1304 | 127.2238 | 273.5593 | 14.34693 | – |
| 2026 Apr 27 17:58 | 2026 Apr 23 16:32:31 | 74.0338 | 0.00258 | 6.1304 | 127.2238 | 273.5593 | 14.34693 | – |
| 2026 Apr 26 17:58 | 2026 Apr 23 16:32:31 | 74.0338 | 0.00258 | 6.1304 | 127.2238 | 273.5593 | 14.34693 | – |
| 2026 Apr 25 17:58 | 2026 Apr 23 16:32:31 | 74.0338 | 0.00258 | 6.1304 | 127.2238 | 273.5593 | 14.34693 | – |
| 2026 Apr 24 17:59 | 2026 Apr 23 16:32:31 | 74.0338 | 0.00258 | 6.1304 | 127.2238 | 273.5593 | 14.34693 | – |
| 2026 Apr 23 17:57 | 2026 Apr 18 17:43:17 | 74.0334 | 0.00259 | 6.7351 | 137.8826 | 273.5593 | 14.34693 | – |
| 2026 Apr 22 17:57 | 2026 Apr 18 17:43:17 | 74.0334 | 0.00259 | 6.7351 | 137.8826 | 273.5593 | 14.34693 | – |
| 2026 Apr 21 17:57 | 2026 Apr 18 17:43:17 | 74.0334 | 0.00259 | 6.7351 | 137.8826 | 273.5593 | 14.34693 | – |
| 2026 Apr 20 17:57 | 2026 Apr 18 17:43:17 | 74.0334 | 0.00259 | 6.7351 | 137.8826 | 273.5593 | 14.34693 | – |
| 2026 Apr 19 17:58 | 2026 Apr 18 17:43:17 | 74.0334 | 0.00259 | 6.7351 | 137.8826 | 273.5593 | 14.34693 | – |
| 2026 Apr 18 17:56 | 2026 Apr 10 08:08:44 | 74.0330 | 0.00262 | 7.7609 | 155.6551 | 273.5593 | 14.34693 | – |
| 2026 Apr 16 17:57 | 2026 Apr 10 08:08:44 | 74.0330 | 0.00262 | 7.7609 | 155.6551 | 273.5593 | 14.34693 | – |
| 2026 Apr 14 17:57 | 2026 Apr 10 08:08:44 | 74.0330 | 0.00262 | 7.7609 | 155.6551 | 273.5593 | 14.34693 | – |
| 2026 Apr 13 17:57 | 2026 Apr 10 08:08:44 | 74.0330 | 0.00262 | 7.7609 | 155.6551 | 273.5593 | 14.34693 | – |
| 2026 Apr 12 17:57 | 2026 Apr 06 19:32:50 | 74.0335 | 0.00263 | 8.1914 | 163.2164 | 273.5593 | 14.34693 | – |
| 2026 Apr 11 17:57 | 2026 Apr 06 19:32:50 | 74.0335 | 0.00263 | 8.1914 | 163.2164 | 273.5593 | 14.34693 | – |
| 2026 Apr 10 17:58 | 2026 Apr 06 19:32:50 | 74.0335 | 0.00263 | 8.1914 | 163.2164 | 273.5593 | 14.34693 | – |
| 2026 Apr 09 18:01 | 2026 Apr 06 19:32:50 | 74.0335 | 0.00263 | 8.1914 | 163.2164 | 273.5593 | 14.34693 | – |